sensor_id;sensor_type;location;lat;lon;timestamp;temperature;humidity
40257;DHT22;25977;45.462;9.210;2022-07-23T00:00:15;32.50;44.80
40257;DHT22;25977;45.462;9.210;2022-07-23T00:02:41;32.60;44.90
40257;DHT22;25977;45.462;9.210;2022-07-23T00:05:07;32.50;44.80
40257;DHT22;25977;45.462;9.210;2022-07-23T00:07:33;32.50;45.00
40257;DHT22;25977;45.462;9.210;2022-07-23T00:09:59;32.50;44.80
40257;DHT22;25977;45.462;9.210;2022-07-23T00:12:25;32.30;44.90
40257;DHT22;25977;45.462;9.210;2022-07-23T00:14:51;32.40;44.90
40257;DHT22;25977;45.462;9.210;2022-07-23T00:17:17;32.30;45.00
40257;DHT22;25977;45.462;9.210;2022-07-23T00:19:43;32.40;45.00
40257;DHT22;25977;45.462;9.210;2022-07-23T00:22:09;32.40;45.20
40257;DHT22;25977;45.462;9.210;2022-07-23T00:24:34;32.30;45.20
40257;DHT22;25977;45.462;9.210;2022-07-23T00:27:00;32.30;45.40
40257;DHT22;25977;45.462;9.210;2022-07-23T00:29:26;32.30;45.30
40257;DHT22;25977;45.462;9.210;2022-07-23T00:31:52;32.30;45.10
40257;DHT22;25977;45.462;9.210;2022-07-23T00:34:17;32.30;44.90
40257;DHT22;25977;45.462;9.210;2022-07-23T00:36:44;32.30;44.80
40257;DHT22;25977;45.462;9.210;2022-07-23T00:39:09;32.30;44.90
40257;DHT22;25977;45.462;9.210;2022-07-23T00:41:35;32.30;44.80
40257;DHT22;25977;45.462;9.210;2022-07-23T00:44:22;32.30;44.80
40257;DHT22;25977;45.462;9.210;2022-07-23T00:46:51;32.30;44.90
40257;DHT22;25977;45.462;9.210;2022-07-23T00:49:26;32.30;45.00
40257;DHT22;25977;45.462;9.210;2022-07-23T00:51:52;32.30;45.00
40257;DHT22;25977;45.462;9.210;2022-07-23T00:54:19;32.30;44.90
40257;DHT22;25977;45.462;9.210;2022-07-23T00:56:46;32.30;45.00
40257;DHT22;25977;45.462;9.210;2022-07-23T00:59:13;32.10;44.80
40257;DHT22;25977;45.462;9.210;2022-07-23T01:01:39;32.00;45.00
40257;DHT22;25977;45.462;9.210;2022-07-23T01:04:05;32.00;45.20
40257;DHT22;25977;45.462;9.210;2022-07-23T01:06:35;31.90;45.40
40257;DHT22;25977;45.462;9.210;2022-07-23T01:09:03;32.00;45.50
40257;DHT22;25977;45.462;9.210;2022-07-23T01:11:30;32.00;45.60
40257;DHT22;25977;45.462;9.210;2022-07-23T01:13:56;32.10;45.80
40257;DHT22;25977;45.462;9.210;2022-07-23T01:16:23;32.00;45.80
40257;DHT22;25977;45.462;9.210;2022-07-23T01:18:48;31.90;45.90
40257;DHT22;25977;45.462;9.210;2022-07-23T01:21:18;31.90;46.00
40257;DHT22;25977;45.462;9.210;2022-07-23T01:23:44;31.70;46.20
40257;DHT22;25977;45.462;9.210;2022-07-23T01:26:09;31.40;46.60
40257;DHT22;25977;45.462;9.210;2022-07-23T01:28:36;31.20;46.90
40257;DHT22;25977;45.462;9.210;2022-07-23T01:31:03;31.00;47.00
40257;DHT22;25977;45.462;9.210;2022-07-23T01:33:33;31.20;46.90
40257;DHT22;25977;45.462;9.210;2022-07-23T01:35:59;31.30;47.10
40257;DHT22;25977;45.462;9.210;2022-07-23T01:38:26;31.30;46.90
40257;DHT22;25977;45.462;9.210;2022-07-23T01:40:52;31.40;46.90
40257;DHT22;25977;45.462;9.210;2022-07-23T01:43:18;31.40;46.90
40257;DHT22;25977;45.462;9.210;2022-07-23T01:45:43;31.40;46.90
40257;DHT22;25977;45.462;9.210;2022-07-23T01:48:11;31.30;47.00
40257;DHT22;25977;45.462;9.210;2022-07-23T01:50:40;31.40;46.90
40257;DHT22;25977;45.462;9.210;2022-07-23T01:53:19;31.40;46.80
40257;DHT22;25977;45.462;9.210;2022-07-23T01:55:45;31.30;46.80
40257;DHT22;25977;45.462;9.210;2022-07-23T01:58:11;31.40;47.10
40257;DHT22;25977;45.462;9.210;2022-07-23T02:00:37;31.50;46.80
40257;DHT22;25977;45.462;9.210;2022-07-23T02:03:04;31.50;46.80
40257;DHT22;25977;45.462;9.210;2022-07-23T02:05:30;31.60;46.80
40257;DHT22;25977;45.462;9.210;2022-07-23T02:07:59;31.60;46.60
40257;DHT22;25977;45.462;9.210;2022-07-23T02:10:25;31.70;46.60
40257;DHT22;25977;45.462;9.210;2022-07-23T02:12:51;31.70;46.60
40257;DHT22;25977;45.462;9.210;2022-07-23T02:18:17;31.60;46.60
40257;DHT22;25977;45.462;9.210;2022-07-23T02:20:43;31.40;46.90
40257;DHT22;25977;45.462;9.210;2022-07-23T02:23:10;31.40;47.00
40257;DHT22;25977;45.462;9.210;2022-07-23T02:25:35;31.50;47.00
40257;DHT22;25977;45.462;9.210;2022-07-23T02:28:01;31.50;47.30
40257;DHT22;25977;45.462;9.210;2022-07-23T02:30:27;31.60;47.30
40257;DHT22;25977;45.462;9.210;2022-07-23T02:32:54;31.60;47.10
40257;DHT22;25977;45.462;9.210;2022-07-23T02:35:20;31.50;46.80
40257;DHT22;25977;45.462;9.210;2022-07-23T02:37:45;31.50;47.00
40257;DHT22;25977;45.462;9.210;2022-07-23T02:40:11;31.50;46.90
40257;DHT22;25977;45.462;9.210;2022-07-23T02:42:39;31.60;47.30
40257;DHT22;25977;45.462;9.210;2022-07-23T02:45:05;31.50;47.20
40257;DHT22;25977;45.462;9.210;2022-07-23T02:47:31;31.60;46.90
40257;DHT22;25977;45.462;9.210;2022-07-23T02:49:59;31.50;46.70
40257;DHT22;25977;45.462;9.210;2022-07-23T02:52:24;31.50;47.00
40257;DHT22;25977;45.462;9.210;2022-07-23T02:54:50;31.50;47.20
40257;DHT22;25977;45.462;9.210;2022-07-23T02:57:16;31.50;47.00
40257;DHT22;25977;45.462;9.210;2022-07-23T02:59:42;31.50;47.20
40257;DHT22;25977;45.462;9.210;2022-07-23T03:02:07;31.50;47.20
40257;DHT22;25977;45.462;9.210;2022-07-23T03:04:34;31.50;47.30
40257;DHT22;25977;45.462;9.210;2022-07-23T03:07:00;31.50;47.10
40257;DHT22;25977;45.462;9.210;2022-07-23T03:09:26;31.50;47.00
40257;DHT22;25977;45.462;9.210;2022-07-23T03:11:51;31.50;46.90
40257;DHT22;25977;45.462;9.210;2022-07-23T03:14:19;31.50;47.10
40257;DHT22;25977;45.462;9.210;2022-07-23T03:16:44;31.50;47.30
40257;DHT22;25977;45.462;9.210;2022-07-23T03:19:10;31.50;47.20
40257;DHT22;25977;45.462;9.210;2022-07-23T03:21:36;31.50;47.20
40257;DHT22;25977;45.462;9.210;2022-07-23T03:24:07;31.50;47.10
40257;DHT22;25977;45.462;9.210;2022-07-23T03:26:33;31.50;47.30
40257;DHT22;25977;45.462;9.210;2022-07-23T03:29:00;31.50;47.20
40257;DHT22;25977;45.462;9.210;2022-07-23T03:31:27;31.50;47.20
40257;DHT22;25977;45.462;9.210;2022-07-23T03:33:52;31.50;47.20
40257;DHT22;25977;45.462;9.210;2022-07-23T03:36:18;31.50;47.20
40257;DHT22;25977;45.462;9.210;2022-07-23T03:38:45;31.50;47.60
40257;DHT22;25977;45.462;9.210;2022-07-23T03:41:11;31.50;47.50
40257;DHT22;25977;45.462;9.210;2022-07-23T03:43:36;31.50;47.50
40257;DHT22;25977;45.462;9.210;2022-07-23T03:46:02;31.50;47.30
40257;DHT22;25977;45.462;9.210;2022-07-23T03:48:29;31.50;47.30
40257;DHT22;25977;45.462;9.210;2022-07-23T03:50:55;31.50;47.40
40257;DHT22;25977;45.462;9.210;2022-07-23T03:53:21;31.50;47.40
40257;DHT22;25977;45.462;9.210;2022-07-23T03:55:46;31.50;47.60
40257;DHT22;25977;45.462;9.210;2022-07-23T03:58:12;31.50;47.60
40257;DHT22;25977;45.462;9.210;2022-07-23T04:00:38;31.50;47.50
40257;DHT22;25977;45.462;9.210;2022-07-23T04:03:04;31.50;47.60
40257;DHT22;25977;45.462;9.210;2022-07-23T04:05:32;31.50;47.40
40257;DHT22;25977;45.462;9.210;2022-07-23T04:08:05;31.40;47.20
40257;DHT22;25977;45.462;9.210;2022-07-23T04:10:31;31.40;47.00
40257;DHT22;25977;45.462;9.210;2022-07-23T04:12:57;31.40;47.00
40257;DHT22;25977;45.462;9.210;2022-07-23T04:15:23;31.40;47.00
40257;DHT22;25977;45.462;9.210;2022-07-23T04:17:49;31.40;47.10
40257;DHT22;25977;45.462;9.210;2022-07-23T04:20:17;31.30;46.90
40257;DHT22;25977;45.462;9.210;2022-07-23T04:22:50;31.40;47.10
40257;DHT22;25977;45.462;9.210;2022-07-23T04:25:16;31.30;47.10
40257;DHT22;25977;45.462;9.210;2022-07-23T04:27:43;31.40;47.20
40257;DHT22;25977;45.462;9.210;2022-07-23T04:30:09;31.30;47.30
40257;DHT22;25977;45.462;9.210;2022-07-23T04:32:35;31.30;47.30
40257;DHT22;25977;45.462;9.210;2022-07-23T04:35:04;31.30;47.30
40257;DHT22;25977;45.462;9.210;2022-07-23T04:37:30;31.30;47.30
40257;DHT22;25977;45.462;9.210;2022-07-23T04:39:55;31.30;47.40
40257;DHT22;25977;45.462;9.210;2022-07-23T04:42:23;31.40;47.30
40257;DHT22;25977;45.462;9.210;2022-07-23T04:44:49;31.40;47.20
40257;DHT22;25977;45.462;9.210;2022-07-23T04:47:16;31.50;47.30
40257;DHT22;25977;45.462;9.210;2022-07-23T04:49:44;31.50;47.30
40257;DHT22;25977;45.462;9.210;2022-07-23T04:52:09;31.60;47.30
40257;DHT22;25977;45.462;9.210;2022-07-23T04:54:36;31.60;47.30
40257;DHT22;25977;45.462;9.210;2022-07-23T04:57:01;31.60;47.30
40257;DHT22;25977;45.462;9.210;2022-07-23T04:59:27;31.60;47.40
40257;DHT22;25977;45.462;9.210;2022-07-23T05:01:58;31.60;47.40
40257;DHT22;25977;45.462;9.210;2022-07-23T05:04:24;31.70;47.40
40257;DHT22;25977;45.462;9.210;2022-07-23T05:06:50;31.70;47.40
40257;DHT22;25977;45.462;9.210;2022-07-23T05:09:16;31.80;47.60
40257;DHT22;25977;45.462;9.210;2022-07-23T05:11:43;31.80;47.70
40257;DHT22;25977;45.462;9.210;2022-07-23T05:14:09;31.90;47.60
40257;DHT22;25977;45.462;9.210;2022-07-23T05:16:38;31.70;47.70
40257;DHT22;25977;45.462;9.210;2022-07-23T05:19:09;31.80;47.60
40257;DHT22;25977;45.462;9.210;2022-07-23T05:21:35;32.00;47.60
40257;DHT22;25977;45.462;9.210;2022-07-23T05:24:01;32.30;47.40
40257;DHT22;25977;45.462;9.210;2022-07-23T05:26:27;32.80;46.50
40257;DHT22;25977;45.462;9.210;2022-07-23T05:28:52;33.50;46.00
40257;DHT22;25977;45.462;9.210;2022-07-23T05:31:19;34.40;45.30
40257;DHT22;25977;45.462;9.210;2022-07-23T05:33:46;35.30;44.50
40257;DHT22;25977;45.462;9.210;2022-07-23T05:36:12;35.90;43.70
40257;DHT22;25977;45.462;9.210;2022-07-23T05:38:51;36.00;43.50
40257;DHT22;25977;45.462;9.210;2022-07-23T05:41:17;36.00;43.40
40257;DHT22;25977;45.462;9.210;2022-07-23T05:43:42;35.00;43.70
40257;DHT22;25977;45.462;9.210;2022-07-23T05:46:10;34.60;44.10
40257;DHT22;25977;45.462;9.210;2022-07-23T05:48:38;34.30;44.40
40257;DHT22;25977;45.462;9.210;2022-07-23T05:51:22;33.80;44.80
40257;DHT22;25977;45.462;9.210;2022-07-23T05:53:50;33.50;44.90
40257;DHT22;25977;45.462;9.210;2022-07-23T05:56:20;33.30;45.00
40257;DHT22;25977;45.462;9.210;2022-07-23T05:58:46;33.00;45.00
40257;DHT22;25977;45.462;9.210;2022-07-23T06:01:13;32.40;45.50
40257;DHT22;25977;45.462;9.210;2022-07-23T06:03:48;32.10;45.80
40257;DHT22;25977;45.462;9.210;2022-07-23T06:06:14;32.00;46.00
40257;DHT22;25977;45.462;9.210;2022-07-23T06:08:40;32.20;45.90
40257;DHT22;25977;45.462;9.210;2022-07-23T06:11:07;32.50;45.70
40257;DHT22;25977;45.462;9.210;2022-07-23T06:13:33;32.40;45.20
40257;DHT22;25977;45.462;9.210;2022-07-23T06:15:59;32.50;45.30
40257;DHT22;25977;45.462;9.210;2022-07-23T06:18:24;32.70;45.40
40257;DHT22;25977;45.462;9.210;2022-07-23T06:20:50;32.80;45.00
40257;DHT22;25977;45.462;9.210;2022-07-23T06:23:16;32.80;45.00
40257;DHT22;25977;45.462;9.210;2022-07-23T06:25:42;32.70;45.20
40257;DHT22;25977;45.462;9.210;2022-07-23T06:28:07;32.90;45.20
40257;DHT22;25977;45.462;9.210;2022-07-23T06:30:33;33.60;44.70
40257;DHT22;25977;45.462;9.210;2022-07-23T06:32:59;34.40;43.70
40257;DHT22;25977;45.462;9.210;2022-07-23T06:35:25;35.10;42.90
40257;DHT22;25977;45.462;9.210;2022-07-23T06:37:50;36.00;42.40
40257;DHT22;25977;45.462;9.210;2022-07-23T06:40:16;36.80;41.40
40257;DHT22;25977;45.462;9.210;2022-07-23T06:42:42;37.30;41.00
40257;DHT22;25977;45.462;9.210;2022-07-23T06:45:14;37.40;40.80
40257;DHT22;25977;45.462;9.210;2022-07-23T06:47:40;37.70;40.70
40257;DHT22;25977;45.462;9.210;2022-07-23T06:50:07;37.90;40.90
40257;DHT22;25977;45.462;9.210;2022-07-23T06:52:33;37.80;41.10
40257;DHT22;25977;45.462;9.210;2022-07-23T06:54:58;37.60;41.10
40257;DHT22;25977;45.462;9.210;2022-07-23T06:57:24;37.50;41.00
40257;DHT22;25977;45.462;9.210;2022-07-23T06:59:51;37.20;41.10
40257;DHT22;25977;45.462;9.210;2022-07-23T07:02:17;36.90;41.40
40257;DHT22;25977;45.462;9.210;2022-07-23T07:04:43;36.40;41.40
40257;DHT22;25977;45.462;9.210;2022-07-23T07:07:09;36.10;42.10
40257;DHT22;25977;45.462;9.210;2022-07-23T07:09:34;35.60;42.90
40257;DHT22;25977;45.462;9.210;2022-07-23T07:12:00;35.80;43.10
40257;DHT22;25977;45.462;9.210;2022-07-23T07:14:27;35.80;43.00
40257;DHT22;25977;45.462;9.210;2022-07-23T07:16:53;36.00;43.10
40257;DHT22;25977;45.462;9.210;2022-07-23T07:19:18;36.10;43.10
40257;DHT22;25977;45.462;9.210;2022-07-23T07:21:44;36.20;43.10
40257;DHT22;25977;45.462;9.210;2022-07-23T07:24:10;36.30;43.00
40257;DHT22;25977;45.462;9.210;2022-07-23T07:26:35;36.30;43.00
40257;DHT22;25977;45.462;9.210;2022-07-23T07:29:01;36.40;42.90
40257;DHT22;25977;45.462;9.210;2022-07-23T07:31:27;36.50;42.80
40257;DHT22;25977;45.462;9.210;2022-07-23T07:33:53;36.60;42.90
40257;DHT22;25977;45.462;9.210;2022-07-23T07:36:19;36.50;43.30
40257;DHT22;25977;45.462;9.210;2022-07-23T07:38:44;36.00;43.10
40257;DHT22;25977;45.462;9.210;2022-07-23T07:41:10;36.10;43.50
40257;DHT22;25977;45.462;9.210;2022-07-23T07:43:36;36.20;43.40
40257;DHT22;25977;45.462;9.210;2022-07-23T07:46:03;36.10;43.50
40257;DHT22;25977;45.462;9.210;2022-07-23T07:48:29;36.10;43.50
40257;DHT22;25977;45.462;9.210;2022-07-23T07:50:55;36.10;43.50
40257;DHT22;25977;45.462;9.210;2022-07-23T07:53:21;36.10;43.50
40257;DHT22;25977;45.462;9.210;2022-07-23T07:55:46;36.10;43.70
40257;DHT22;25977;45.462;9.210;2022-07-23T07:58:12;36.00;43.90
40257;DHT22;25977;45.462;9.210;2022-07-23T08:00:38;35.80;43.90
40257;DHT22;25977;45.462;9.210;2022-07-23T08:03:04;35.50;44.50
40257;DHT22;25977;45.462;9.210;2022-07-23T08:05:30;35.50;44.40
40257;DHT22;25977;45.462;9.210;2022-07-23T08:07:57;35.60;44.50
40257;DHT22;25977;45.462;9.210;2022-07-23T08:10:25;35.70;44.50
40257;DHT22;25977;45.462;9.210;2022-07-23T08:12:53;35.80;44.50
40257;DHT22;25977;45.462;9.210;2022-07-23T08:15:20;36.00;44.60
40257;DHT22;25977;45.462;9.210;2022-07-23T08:17:47;36.10;44.40
40257;DHT22;25977;45.462;9.210;2022-07-23T08:20:14;36.10;44.50
40257;DHT22;25977;45.462;9.210;2022-07-23T08:22:55;36.30;44.50
40257;DHT22;25977;45.462;9.210;2022-07-23T08:25:32;36.40;44.70
40257;DHT22;25977;45.462;9.210;2022-07-23T08:28:00;36.50;44.90
40257;DHT22;25977;45.462;9.210;2022-07-23T08:30:26;36.60;44.90
40257;DHT22;25977;45.462;9.210;2022-07-23T08:33:10;36.70;45.10
40257;DHT22;25977;45.462;9.210;2022-07-23T08:35:41;36.80;45.50
40257;DHT22;25977;45.462;9.210;2022-07-23T08:38:09;36.30;46.40
40257;DHT22;25977;45.462;9.210;2022-07-23T08:40:38;36.00;46.90
40257;DHT22;25977;45.462;9.210;2022-07-23T08:43:06;36.20;46.80
40257;DHT22;25977;45.462;9.210;2022-07-23T08:45:37;36.40;47.00
40257;DHT22;25977;45.462;9.210;2022-07-23T08:48:06;36.50;47.10
40257;DHT22;25977;45.462;9.210;2022-07-23T08:50:32;36.60;47.10
40257;DHT22;25977;45.462;9.210;2022-07-23T08:53:00;36.70;47.30
40257;DHT22;25977;45.462;9.210;2022-07-23T08:55:26;36.50;47.40
40257;DHT22;25977;45.462;9.210;2022-07-23T08:57:53;36.40;47.80
40257;DHT22;25977;45.462;9.210;2022-07-23T09:00:20;36.50;48.00
40257;DHT22;25977;45.462;9.210;2022-07-23T09:02:47;36.60;48.20
40257;DHT22;25977;45.462;9.210;2022-07-23T09:05:14;36.70;48.50
40257;DHT22;25977;45.462;9.210;2022-07-23T09:08:15;36.80;48.50
40257;DHT22;25977;45.462;9.210;2022-07-23T09:13:28;36.80;48.70
40257;DHT22;25977;45.462;9.210;2022-07-23T09:18:36;36.60;48.90
40257;DHT22;25977;45.462;9.210;2022-07-23T09:21:06;36.60;49.10
40257;DHT22;25977;45.462;9.210;2022-07-23T09:23:44;36.50;49.40
40257;DHT22;25977;45.462;9.210;2022-07-23T09:26:42;36.50;49.70
40257;DHT22;25977;45.462;9.210;2022-07-23T09:34:31;36.30;50.10
40257;DHT22;25977;45.462;9.210;2022-07-23T09:37:09;35.70;50.90
40257;DHT22;25977;45.462;9.210;2022-07-23T09:39:35;36.00;51.00
40257;DHT22;25977;45.462;9.210;2022-07-23T09:42:21;36.10;50.60
40257;DHT22;25977;45.462;9.210;2022-07-23T09:44:49;36.10;50.70
40257;DHT22;25977;45.462;9.210;2022-07-23T09:47:15;36.20;50.70
40257;DHT22;25977;45.462;9.210;2022-07-23T09:52:44;36.20;50.30
40257;DHT22;25977;45.462;9.210;2022-07-23T09:55:12;36.30;50.60
40257;DHT22;25977;45.462;9.210;2022-07-23T09:57:40;36.50;50.50
40257;DHT22;25977;45.462;9.210;2022-07-23T10:00:08;36.50;50.20
40257;DHT22;25977;45.462;9.210;2022-07-23T10:02:36;36.60;50.10
40257;DHT22;25977;45.462;9.210;2022-07-23T10:05:21;36.70;50.20
40257;DHT22;25977;45.462;9.210;2022-07-23T10:08:07;36.40;50.40
40257;DHT22;25977;45.462;9.210;2022-07-23T10:10:50;36.10;50.80
40257;DHT22;25977;45.462;9.210;2022-07-23T10:13:35;36.10;51.10
40257;DHT22;25977;45.462;9.210;2022-07-23T10:16:25;36.20;50.80
40257;DHT22;25977;45.462;9.210;2022-07-23T10:18:51;36.30;50.80
40257;DHT22;25977;45.462;9.210;2022-07-23T10:21:41;36.30;50.90
40257;DHT22;25977;45.462;9.210;2022-07-23T10:35:37;36.10;51.40
40257;DHT22;25977;45.462;9.210;2022-07-23T10:38:12;36.30;51.80
40257;DHT22;25977;45.462;9.210;2022-07-23T10:41:00;36.40;51.80
40257;DHT22;25977;45.462;9.210;2022-07-23T10:43:27;36.40;51.60
40257;DHT22;25977;45.462;9.210;2022-07-23T10:45:53;36.60;51.40
40257;DHT22;25977;45.462;9.210;2022-07-23T10:48:20;36.70;51.20
40257;DHT22;25977;45.462;9.210;2022-07-23T10:59:05;36.50;50.80
40257;DHT22;25977;45.462;9.210;2022-07-23T11:01:33;36.60;51.00
40257;DHT22;25977;45.462;9.210;2022-07-23T11:04:00;36.60;50.90
40257;DHT22;25977;45.462;9.210;2022-07-23T11:09:44;36.00;51.00
40257;DHT22;25977;45.462;9.210;2022-07-23T11:15:10;36.20;51.80
40257;DHT22;25977;45.462;9.210;2022-07-23T11:25:28;36.30;50.80
40257;DHT22;25977;45.462;9.210;2022-07-23T11:27:54;36.40;50.60
40257;DHT22;25977;45.462;9.210;2022-07-23T11:32:53;36.50;51.10
40257;DHT22;25977;45.462;9.210;2022-07-23T11:35:24;36.50;51.20
40257;DHT22;25977;45.462;9.210;2022-07-23T11:37:52;36.60;50.20
40257;DHT22;25977;45.462;9.210;2022-07-23T11:40:24;36.50;49.20
40257;DHT22;25977;45.462;9.210;2022-07-23T11:43:01;36.60;49.40
40257;DHT22;25977;45.462;9.210;2022-07-23T11:45:38;36.60;49.80
40257;DHT22;25977;45.462;9.210;2022-07-23T11:48:07;36.50;50.00
40257;DHT22;25977;45.462;9.210;2022-07-23T11:50:33;36.50;50.00
40257;DHT22;25977;45.462;9.210;2022-07-23T11:53:00;36.30;49.90
40257;DHT22;25977;45.462;9.210;2022-07-23T11:55:26;35.90;50.10
40257;DHT22;25977;45.462;9.210;2022-07-23T11:57:54;36.00;50.70
40257;DHT22;25977;45.462;9.210;2022-07-23T12:00:25;36.10;50.40
40257;DHT22;25977;45.462;9.210;2022-07-23T12:02:53;36.10;50.20
40257;DHT22;25977;45.462;9.210;2022-07-23T12:05:25;36.00;50.10
40257;DHT22;25977;45.462;9.210;2022-07-23T12:07:53;36.10;50.00
40257;DHT22;25977;45.462;9.210;2022-07-23T12:10:37;36.20;50.30
40257;DHT22;25977;45.462;9.210;2022-07-23T12:13:08;36.10;50.40
40257;DHT22;25977;45.462;9.210;2022-07-23T12:15:48;35.90;50.90
40257;DHT22;25977;45.462;9.210;2022-07-23T12:18:20;36.00;51.00
40257;DHT22;25977;45.462;9.210;2022-07-23T12:20:49;35.90;50.80
40257;DHT22;25977;45.462;9.210;2022-07-23T12:23:17;35.90;50.70
40257;DHT22;25977;45.462;9.210;2022-07-23T12:25:45;35.80;51.50
40257;DHT22;25977;45.462;9.210;2022-07-23T12:28:17;35.90;51.30
40257;DHT22;25977;45.462;9.210;2022-07-23T12:30:51;35.60;50.50
40257;DHT22;25977;45.462;9.210;2022-07-23T12:36:00;35.60;50.80
40257;DHT22;25977;45.462;9.210;2022-07-23T12:38:35;35.60;50.80
40257;DHT22;25977;45.462;9.210;2022-07-23T12:41:01;35.60;51.20
40257;DHT22;25977;45.462;9.210;2022-07-23T12:46:09;36.00;51.20
40257;DHT22;25977;45.462;9.210;2022-07-23T12:51:24;36.30;50.60
40257;DHT22;25977;45.462;9.210;2022-07-23T12:53:52;36.50;50.20
40257;DHT22;25977;45.462;9.210;2022-07-23T12:58:52;36.60;50.30
40257;DHT22;25977;45.462;9.210;2022-07-23T13:03:57;36.60;49.90
40257;DHT22;25977;45.462;9.210;2022-07-23T13:06:25;36.50;50.10
40257;DHT22;25977;45.462;9.210;2022-07-23T13:08:51;36.60;50.30
40257;DHT22;25977;45.462;9.210;2022-07-23T13:11:17;36.70;50.50
40257;DHT22;25977;45.462;9.210;2022-07-23T13:13:43;36.60;50.50
40257;DHT22;25977;45.462;9.210;2022-07-23T13:16:08;36.70;50.10
40257;DHT22;25977;45.462;9.210;2022-07-23T13:18:35;36.50;50.10
40257;DHT22;25977;45.462;9.210;2022-07-23T13:21:02;36.60;50.20
40257;DHT22;25977;45.462;9.210;2022-07-23T13:23:28;36.50;50.10
40257;DHT22;25977;45.462;9.210;2022-07-23T13:25:54;36.70;50.20
40257;DHT22;25977;45.462;9.210;2022-07-23T13:28:21;36.70;50.20
40257;DHT22;25977;45.462;9.210;2022-07-23T13:30:47;36.60;50.60
40257;DHT22;25977;45.462;9.210;2022-07-23T13:33:16;36.60;50.50
40257;DHT22;25977;45.462;9.210;2022-07-23T13:35:43;36.70;50.40
40257;DHT22;25977;45.462;9.210;2022-07-23T13:38:09;36.80;50.50
40257;DHT22;25977;45.462;9.210;2022-07-23T13:40:37;36.90;50.30
40257;DHT22;25977;45.462;9.210;2022-07-23T13:43:06;37.00;50.30
40257;DHT22;25977;45.462;9.210;2022-07-23T13:45:32;36.90;50.30
40257;DHT22;25977;45.462;9.210;2022-07-23T13:47:58;36.80;50.30
40257;DHT22;25977;45.462;9.210;2022-07-23T13:50:25;36.70;50.40
40257;DHT22;25977;45.462;9.210;2022-07-23T13:52:50;36.50;50.50
40257;DHT22;25977;45.462;9.210;2022-07-23T13:55:16;36.30;50.40
40257;DHT22;25977;45.462;9.210;2022-07-23T13:57:42;36.40;50.10
40257;DHT22;25977;45.462;9.210;2022-07-23T14:00:09;36.30;49.70
40257;DHT22;25977;45.462;9.210;2022-07-23T14:02:37;36.20;49.90
40257;DHT22;25977;45.462;9.210;2022-07-23T14:05:05;36.30;50.00
40257;DHT22;25977;45.462;9.210;2022-07-23T14:07:32;36.40;50.00
40257;DHT22;25977;45.462;9.210;2022-07-23T14:09:58;36.40;49.90
40257;DHT22;25977;45.462;9.210;2022-07-23T14:12:24;36.50;49.80
40257;DHT22;25977;45.462;9.210;2022-07-23T14:14:50;36.30;50.00
40257;DHT22;25977;45.462;9.210;2022-07-23T14:17:16;36.40;50.20
40257;DHT22;25977;45.462;9.210;2022-07-23T14:19:41;36.30;50.40
40257;DHT22;25977;45.462;9.210;2022-07-23T14:22:07;36.20;50.40
40257;DHT22;25977;45.462;9.210;2022-07-23T14:24:33;36.20;50.40
40257;DHT22;25977;45.462;9.210;2022-07-23T14:27:04;36.30;50.00
40257;DHT22;25977;45.462;9.210;2022-07-23T14:29:30;36.30;49.80
40257;DHT22;25977;45.462;9.210;2022-07-23T14:31:56;36.30;49.70
40257;DHT22;25977;45.462;9.210;2022-07-23T14:34:22;36.30;50.00
40257;DHT22;25977;45.462;9.210;2022-07-23T14:36:48;36.40;50.30
40257;DHT22;25977;45.462;9.210;2022-07-23T14:39:14;36.20;49.90
40257;DHT22;25977;45.462;9.210;2022-07-23T14:41:40;36.10;50.20
40257;DHT22;25977;45.462;9.210;2022-07-23T14:44:06;36.10;50.40
40257;DHT22;25977;45.462;9.210;2022-07-23T14:46:31;36.20;50.30
40257;DHT22;25977;45.462;9.210;2022-07-23T14:48:57;36.10;50.60
40257;DHT22;25977;45.462;9.210;2022-07-23T14:51:23;36.20;50.40
40257;DHT22;25977;45.462;9.210;2022-07-23T14:53:49;36.20;50.30
40257;DHT22;25977;45.462;9.210;2022-07-23T14:56:14;36.20;50.10
40257;DHT22;25977;45.462;9.210;2022-07-23T14:58:41;36.00;50.30
40257;DHT22;25977;45.462;9.210;2022-07-23T15:01:07;36.10;50.30
40257;DHT22;25977;45.462;9.210;2022-07-23T15:03:33;36.00;50.20
40257;DHT22;25977;45.462;9.210;2022-07-23T15:05:59;36.00;49.90
40257;DHT22;25977;45.462;9.210;2022-07-23T15:08:25;35.80;50.60
40257;DHT22;25977;45.462;9.210;2022-07-23T15:10:51;35.90;50.60
40257;DHT22;25977;45.462;9.210;2022-07-23T15:13:17;36.00;50.80
40257;DHT22;25977;45.462;9.210;2022-07-23T15:15:43;35.70;50.70
40257;DHT22;25977;45.462;9.210;2022-07-23T15:18:10;35.60;51.30
40257;DHT22;25977;45.462;9.210;2022-07-23T15:20:36;35.80;52.20
40257;DHT22;25977;45.462;9.210;2022-07-23T15:23:06;35.90;51.20
40257;DHT22;25977;45.462;9.210;2022-07-23T15:25:32;35.90;50.70
40257;DHT22;25977;45.462;9.210;2022-07-23T15:27:58;36.00;50.40
40257;DHT22;25977;45.462;9.210;2022-07-23T15:30:25;36.10;50.30
40257;DHT22;25977;45.462;9.210;2022-07-23T15:32:51;36.10;50.80
40257;DHT22;25977;45.462;9.210;2022-07-23T15:35:17;36.10;51.20
40257;DHT22;25977;45.462;9.210;2022-07-23T15:37:42;36.10;51.50
40257;DHT22;25977;45.462;9.210;2022-07-23T15:40:09;36.10;51.60
40257;DHT22;25977;45.462;9.210;2022-07-23T15:42:35;36.10;51.70
40257;DHT22;25977;45.462;9.210;2022-07-23T15:45:03;36.00;51.70
40257;DHT22;25977;45.462;9.210;2022-07-23T15:47:29;35.90;51.90
40257;DHT22;25977;45.462;9.210;2022-07-23T15:49:55;35.90;51.90
40257;DHT22;25977;45.462;9.210;2022-07-23T15:52:21;35.70;52.00
40257;DHT22;25977;45.462;9.210;2022-07-23T15:54:46;35.70;52.30
40257;DHT22;25977;45.462;9.210;2022-07-23T15:57:12;35.60;52.20
40257;DHT22;25977;45.462;9.210;2022-07-23T15:59:38;35.70;52.20
40257;DHT22;25977;45.462;9.210;2022-07-23T16:02:04;35.80;52.20
40257;DHT22;25977;45.462;9.210;2022-07-23T16:04:31;35.80;52.00
40257;DHT22;25977;45.462;9.210;2022-07-23T16:06:58;35.90;51.80
40257;DHT22;25977;45.462;9.210;2022-07-23T16:09:24;35.80;51.90
40257;DHT22;25977;45.462;9.210;2022-07-23T16:11:50;35.80;52.20
40257;DHT22;25977;45.462;9.210;2022-07-23T16:14:16;35.70;52.40
40257;DHT22;25977;45.462;9.210;2022-07-23T16:16:42;35.80;52.40
40257;DHT22;25977;45.462;9.210;2022-07-23T16:19:08;35.70;52.30
40257;DHT22;25977;45.462;9.210;2022-07-23T16:21:35;35.80;52.30
40257;DHT22;25977;45.462;9.210;2022-07-23T16:24:01;35.80;52.30
40257;DHT22;25977;45.462;9.210;2022-07-23T16:26:27;35.60;52.40
40257;DHT22;25977;45.462;9.210;2022-07-23T16:28:53;35.50;52.50
40257;DHT22;25977;45.462;9.210;2022-07-23T16:31:19;35.50;52.60
40257;DHT22;25977;45.462;9.210;2022-07-23T16:33:44;35.50;52.70
40257;DHT22;25977;45.462;9.210;2022-07-23T16:36:13;35.50;52.70
40257;DHT22;25977;45.462;9.210;2022-07-23T16:38:39;35.50;52.90